createdAt,value
2023-04-30T00:00:16.832Z,609.40
2023-04-30T00:01:16.831Z,218.30
2023-04-30T00:02:16.892Z,485.90
2023-04-30T00:03:16.891Z,605.50
2023-04-30T00:04:16.807Z,604.60
2023-04-30T00:05:16.780Z,600.20
2023-04-30T00:06:16.835Z,609.30
2023-04-30T00:07:16.953Z,591.40
2023-04-30T00:08:16.735Z,584.00
2023-04-30T00:09:16.751Z,204.20
2023-04-30T00:10:16.709Z,418.60
2023-04-30T00:11:16.738Z,651.80
2023-04-30T00:12:16.748Z,656.60
2023-04-30T00:13:16.688Z,640.10
2023-04-30T00:14:16.674Z,571.20
2023-04-30T00:15:16.668Z,572.60
2023-04-30T00:16:16.709Z,559.20
2023-04-30T00:17:16.694Z,560.00
2023-04-30T00:18:16.635Z,544.70
2023-04-30T00:19:16.615Z,564.00
2023-04-30T00:20:16.613Z,559.90
2023-04-30T00:21:16.591Z,566.50
2023-04-30T00:22:16.620Z,525.20
2023-04-30T00:23:16.568Z,522.30
2023-04-30T00:24:16.552Z,510.20
2023-04-30T00:25:16.610Z,511.20
2023-04-30T00:26:16.546Z,507.30
2023-04-30T00:27:16.573Z,501.90
2023-04-30T00:28:16.515Z,527.30
2023-04-30T00:29:16.510Z,534.10
2023-04-30T00:30:16.493Z,510.80
2023-04-30T00:31:16.494Z,525.60
2023-04-30T00:32:16.571Z,492.70
2023-04-30T00:33:16.479Z,517.60
2023-04-30T00:34:16.442Z,543.60
2023-04-30T00:35:16.459Z,518.00
2023-04-30T00:36:16.417Z,549.70
2023-04-30T00:37:16.448Z,561.40
2023-04-30T00:38:16.397Z,589.80
2023-04-30T00:39:16.410Z,623.60
2023-04-30T00:40:16.373Z,656.20
2023-04-30T00:41:16.378Z,679.40
2023-04-30T00:42:16.419Z,709.30
2023-04-30T00:43:16.349Z,685.40
2023-04-30T00:44:16.360Z,701.40
2023-04-30T00:45:16.324Z,719.90
2023-04-30T00:46:16.320Z,709.40
2023-04-30T00:47:16.354Z,693.50
2023-04-30T00:48:16.296Z,697.40
2023-04-30T00:49:16.274Z,666.10
2023-04-30T00:50:16.390Z,644.40
2023-04-30T00:51:16.268Z,593.90
2023-04-30T00:52:16.296Z,629.40
2023-04-30T00:53:16.261Z,616.70
2023-04-30T00:54:16.220Z,579.60
2023-04-30T00:55:16.213Z,616.00
2023-04-30T00:56:16.191Z,595.20
2023-04-30T00:57:16.236Z,759.10
2023-04-30T00:58:16.171Z,776.00
2023-04-30T00:59:16.150Z,768.70
2023-04-30T01:00:16.176Z,770.00
2023-04-30T01:01:16.156Z,762.00
2023-04-30T01:02:16.188Z,752.90
2023-04-30T01:03:16.341Z,754.90
2023-04-30T01:04:16.099Z,761.30
2023-04-30T01:05:16.108Z,757.30
2023-04-30T01:06:16.118Z,732.30
2023-04-30T01:07:16.107Z,734.30
2023-04-30T01:08:16.071Z,731.20
2023-04-30T01:09:16.065Z,716.60
2023-04-30T01:10:16.057Z,706.30
2023-04-30T01:11:16.016Z,707.50
2023-04-30T01:12:16.099Z,694.90
2023-04-30T01:13:16.000Z,693.50
2023-04-30T01:14:15.991Z,682.40
2023-04-30T01:15:16.000Z,684.50
2023-04-30T01:16:15.986Z,681.40
2023-04-30T01:17:16.059Z,686.30
2023-04-30T01:18:16.102Z,682.00
2023-04-30T01:19:16.005Z,670.10
2023-04-30T01:20:15.945Z,664.90
2023-04-30T01:21:15.919Z,650.10
2023-04-30T01:22:15.944Z,669.50
2023-04-30T01:23:15.883Z,689.20
2023-04-30T01:24:15.886Z,688.80
2023-04-30T01:25:15.864Z,696.90
2023-04-30T01:26:15.852Z,739.50
2023-04-30T01:27:15.868Z,708.40
2023-04-30T01:28:15.850Z,683.30
2023-04-30T01:29:15.829Z,704.00
2023-04-30T01:30:15.820Z,721.50
2023-04-30T01:31:15.795Z,744.70
2023-04-30T01:32:15.838Z,708.40
2023-04-30T01:33:15.782Z,755.20
2023-04-30T01:34:15.766Z,748.10
2023-04-30T01:35:15.752Z,765.10
2023-04-30T01:36:15.753Z,834.80
2023-04-30T01:37:15.729Z,867.10
2023-04-30T01:38:15.756Z,774.50
2023-04-30T01:39:15.710Z,745.40
2023-04-30T01:40:15.707Z,755.50
2023-04-30T01:41:15.685Z,808.60
2023-04-30T01:42:15.676Z,842.80
2023-04-30T01:43:15.717Z,943.40
2023-04-30T01:44:15.668Z,908.80
2023-04-30T01:45:15.658Z,883.90
2023-04-30T01:46:15.683Z,896.20
2023-04-30T01:47:15.648Z,880.40
2023-04-30T01:48:15.633Z,731.10
2023-04-30T01:49:15.604Z,922.70
2023-04-30T01:50:15.596Z,913.10
2023-04-30T01:51:15.589Z,874.20
2023-04-30T01:52:15.619Z,752.60
2023-04-30T01:53:15.606Z,880.20
2023-04-30T01:54:15.542Z,817.20
2023-04-30T01:55:15.528Z,894.30
2023-04-30T01:56:15.516Z,834.70
2023-04-30T01:57:15.552Z,817.50
2023-04-30T01:58:15.560Z,788.60
2023-04-30T01:59:15.492Z,832.80
2023-04-30T02:00:15.495Z,806.50
2023-04-30T02:01:15.524Z,772.00
2023-04-30T02:02:15.493Z,366.90
2023-04-30T02:03:15.515Z,280.30
2023-04-30T02:04:15.430Z,313.20
2023-04-30T02:05:15.436Z,975.60
2023-04-30T02:06:15.459Z,961.80
2023-04-30T02:07:15.451Z,981.60
2023-04-30T02:08:15.408Z,986.90
2023-04-30T02:09:15.384Z,995.10
2023-04-30T02:10:15.394Z,996.70
2023-04-30T02:11:15.364Z,999.90
2023-04-30T02:12:15.358Z,999.90
2023-04-30T02:13:15.366Z,999.90
2023-04-30T02:14:15.352Z,999.90
2023-04-30T02:15:15.353Z,999.90
2023-04-30T02:16:15.364Z,999.90
2023-04-30T02:17:15.322Z,999.90
2023-04-30T02:18:15.303Z,999.90
2023-04-30T02:19:15.518Z,999.90
2023-04-30T02:20:15.269Z,999.90
2023-04-30T02:21:15.261Z,981.90
2023-04-30T02:22:15.309Z,935.30
2023-04-30T02:23:15.214Z,931.20
2023-04-30T02:24:15.198Z,925.90
2023-04-30T02:25:15.199Z,923.20
2023-04-30T02:26:15.175Z,913.40
2023-04-30T02:27:15.176Z,915.90
2023-04-30T02:28:15.199Z,913.80
2023-04-30T02:29:15.167Z,929.10
2023-04-30T02:30:15.127Z,943.60
2023-04-30T02:31:15.164Z,966.90
2023-04-30T02:32:15.105Z,968.40
2023-04-30T02:33:15.144Z,972.50
2023-04-30T02:34:15.084Z,977.30
2023-04-30T02:35:15.084Z,998.50
2023-04-30T02:36:15.088Z,984.50
2023-04-30T02:37:15.063Z,974.00
2023-04-30T02:38:15.093Z,962.40
2023-04-30T02:39:15.044Z,960.70
2023-04-30T02:40:15.050Z,947.80
2023-04-30T02:41:15.028Z,937.60
2023-04-30T02:42:15.034Z,930.80
2023-04-30T02:43:15.037Z,934.70
2023-04-30T02:44:14.984Z,939.80
2023-04-30T02:45:14.971Z,934.00
2023-04-30T02:46:15.016Z,930.10
2023-04-30T02:47:14.941Z,929.90
2023-04-30T02:48:14.970Z,933.40
2023-04-30T02:49:14.923Z,916.20
2023-04-30T02:50:14.919Z,919.70
2023-04-30T02:51:14.922Z,944.10
2023-04-30T02:52:14.901Z,954.60
2023-04-30T02:53:14.922Z,961.60
2023-04-30T02:54:14.880Z,956.60
2023-04-30T02:55:14.851Z,955.60
2023-04-30T02:56:14.860Z,953.80
2023-04-30T02:57:14.830Z,947.70
2023-04-30T02:58:14.857Z,949.70
2023-04-30T02:59:14.808Z,943.70
2023-04-30T03:00:14.830Z,931.60
2023-04-30T03:01:14.842Z,887.90
2023-04-30T03:02:14.828Z,871.30
2023-04-30T03:03:14.890Z,863.60
2023-04-30T03:04:14.788Z,863.40
2023-04-30T03:05:14.737Z,857.60
2023-04-30T03:06:14.792Z,869.00
2023-04-30T03:07:14.717Z,867.70
2023-04-30T03:08:14.736Z,875.10
2023-04-30T03:09:14.691Z,872.40
2023-04-30T03:10:14.706Z,869.90
2023-04-30T03:11:14.684Z,877.30
2023-04-30T03:12:14.671Z,875.60
2023-04-30T03:13:14.697Z,879.60
2023-04-30T03:14:14.649Z,869.10
2023-04-30T03:15:14.637Z,869.30
2023-04-30T03:16:14.687Z,856.00
2023-04-30T03:17:14.613Z,857.70
2023-04-30T03:18:14.695Z,842.80
2023-04-30T03:19:14.585Z,846.30
2023-04-30T03:20:14.587Z,849.40
2023-04-30T03:21:14.565Z,846.50
2023-04-30T03:22:14.581Z,856.00
2023-04-30T03:23:14.569Z,842.40
2023-04-30T03:24:14.516Z,834.90
2023-04-30T03:25:14.507Z,828.10
2023-04-30T03:26:14.507Z,841.90
2023-04-30T03:27:14.487Z,840.60
2023-04-30T03:28:14.517Z,838.60
2023-04-30T03:29:14.487Z,839.90
2023-04-30T03:30:14.461Z,845.00
2023-04-30T03:31:14.496Z,843.80
2023-04-30T03:32:14.458Z,836.50
2023-04-30T03:33:14.515Z,827.30
2023-04-30T03:34:14.431Z,825.20
2023-04-30T03:35:14.399Z,797.80
2023-04-30T03:36:14.401Z,794.10
2023-04-30T03:37:14.378Z,790.20
2023-04-30T03:38:14.536Z,786.30
2023-04-30T03:39:14.360Z,798.60
2023-04-30T03:40:14.419Z,774.30
2023-04-30T03:41:14.339Z,777.20
2023-04-30T03:42:14.329Z,771.90
2023-04-30T03:43:14.368Z,773.90
2023-04-30T03:44:14.312Z,783.90
2023-04-30T03:45:14.309Z,782.20
2023-04-30T03:46:14.313Z,791.00
2023-04-30T03:47:14.278Z,785.40
2023-04-30T03:48:14.310Z,781.80
2023-04-30T03:49:14.252Z,773.10
2023-04-30T03:50:14.243Z,727.40
2023-04-30T03:51:14.244Z,709.90
2023-04-30T03:52:14.219Z,709.70
2023-04-30T03:53:14.221Z,718.90
2023-04-30T03:54:14.191Z,733.90
2023-04-30T03:55:14.186Z,766.60
2023-04-30T03:56:14.166Z,801.70
2023-04-30T03:57:14.176Z,820.70
2023-04-30T03:58:14.186Z,826.30
2023-04-30T03:59:14.139Z,825.10
2023-04-30T04:00:14.136Z,823.70
2023-04-30T04:01:14.125Z,822.80
2023-04-30T04:02:14.150Z,837.70
2023-04-30T04:03:14.150Z,835.50
2023-04-30T04:04:14.120Z,831.20
2023-04-30T04:05:14.068Z,843.60
2023-04-30T04:06:14.087Z,848.90
2023-04-30T04:07:14.056Z,849.90
2023-04-30T04:08:14.072Z,860.90
2023-04-30T04:09:14.057Z,857.10
2023-04-30T04:10:14.027Z,853.60
2023-04-30T04:11:14.009Z,840.90
2023-04-30T04:12:13.990Z,847.40
2023-04-30T04:13:14.029Z,846.30
2023-04-30T04:14:13.967Z,859.80
2023-04-30T04:15:13.955Z,857.20
2023-04-30T04:16:14.005Z,857.10
2023-04-30T04:17:13.932Z,847.60
2023-04-30T04:18:13.989Z,850.80
2023-04-30T04:19:14.267Z,851.30
2023-04-30T04:20:14.265Z,842.10
2023-04-30T04:21:13.896Z,837.10
2023-04-30T04:22:13.896Z,823.10
2023-04-30T04:23:13.888Z,806.70
2023-04-30T04:24:13.898Z,779.60
2023-04-30T04:25:13.846Z,765.90
2023-04-30T04:26:13.841Z,756.90
2023-04-30T04:27:13.823Z,744.70
2023-04-30T04:28:13.804Z,723.60
2023-04-30T04:29:13.854Z,695.20
2023-04-30T04:30:13.830Z,696.80
2023-04-30T04:31:13.801Z,699.10
2023-04-30T04:32:13.776Z,675.00
2023-04-30T04:33:13.757Z,645.70
2023-04-30T04:34:13.785Z,650.00
2023-04-30T04:35:13.781Z,638.20
2023-04-30T04:36:13.743Z,538.90
2023-04-30T04:37:13.720Z,526.60
2023-04-30T04:38:13.708Z,513.90
2023-04-30T04:39:13.728Z,214.80
2023-04-30T04:40:13.686Z,212.10
2023-04-30T04:41:13.664Z,732.90
2023-04-30T04:42:13.664Z,778.90
2023-04-30T04:43:13.645Z,745.70
2023-04-30T04:44:13.680Z,708.20
2023-04-30T04:45:13.613Z,667.80
2023-04-30T04:46:14.449Z,662.20
2023-04-30T04:47:13.591Z,653.90
2023-04-30T04:48:13.594Z,657.70
2023-04-30T04:49:13.618Z,644.00
2023-04-30T04:50:13.578Z,634.10
2023-04-30T04:51:13.554Z,651.90
2023-04-30T04:52:13.544Z,649.90
2023-04-30T04:53:13.528Z,607.50
2023-04-30T04:54:13.555Z,567.40
2023-04-30T04:55:13.506Z,549.70
2023-04-30T04:56:13.514Z,557.20
2023-04-30T04:57:13.497Z,573.10
2023-04-30T04:58:13.474Z,591.20
2023-04-30T04:59:13.487Z,588.00
2023-04-30T05:00:13.450Z,522.20
2023-04-30T05:01:13.467Z,514.40
2023-04-30T05:02:13.411Z,506.00
2023-04-30T05:03:13.508Z,492.80
2023-04-30T05:04:13.432Z,492.60
2023-04-30T05:05:13.410Z,621.60
2023-04-30T05:06:13.429Z,660.80
2023-04-30T05:07:13.374Z,642.50
2023-04-30T05:08:13.381Z,647.40
2023-04-30T05:09:13.440Z,614.60
2023-04-30T05:10:13.345Z,172.60
2023-04-30T05:11:15.541Z,209.60
2023-04-30T05:12:13.309Z,364.10
2023-04-30T05:13:13.329Z,254.40
2023-04-30T05:14:13.335Z,257.40
2023-04-30T05:15:13.329Z,262.10
2023-04-30T05:16:13.322Z,394.30
2023-04-30T05:17:13.270Z,224.80
2023-04-30T05:18:13.253Z,360.50
2023-04-30T05:19:13.285Z,217.10
2023-04-30T05:20:13.246Z,196.00
2023-04-30T05:21:13.212Z,320.80
2023-04-30T05:22:13.206Z,276.40
2023-04-30T05:23:13.200Z,192.10
2023-04-30T05:24:13.233Z,162.80
2023-04-30T05:25:13.161Z,297.60
2023-04-30T05:26:13.141Z,185.30
2023-04-30T05:27:13.147Z,189.40
2023-04-30T05:28:13.132Z,330.60
2023-04-30T05:29:13.166Z,267.40
2023-04-30T05:30:13.121Z,259.30
2023-04-30T05:31:13.137Z,236.30
2023-04-30T05:32:13.156Z,340.40
2023-04-30T05:33:13.145Z,92.30
2023-04-30T05:34:13.102Z,74.40
2023-04-30T05:35:13.069Z,320.20
2023-04-30T05:36:13.054Z,110.40
2023-04-30T05:37:13.079Z,80.20
2023-04-30T05:38:13.043Z,250.80
2023-04-30T05:39:13.048Z,89.30
2023-04-30T05:40:13.019Z,81.10
2023-04-30T05:41:13.148Z,178.50
2023-04-30T05:42:13.043Z,61.40
2023-04-30T05:43:12.960Z,87.30
2023-04-30T05:44:12.993Z,103.00
2023-04-30T05:45:12.936Z,170.50
2023-04-30T05:46:12.975Z,171.80
2023-04-30T05:47:12.934Z,171.90
2023-04-30T05:48:12.991Z,60.70
2023-04-30T05:49:12.946Z,48.00
2023-04-30T05:50:12.891Z,49.40
2023-04-30T05:51:12.899Z,57.30
2023-04-30T05:52:12.849Z,78.60
2023-04-30T05:53:12.858Z,257.80
2023-04-30T05:54:12.924Z,187.00
2023-04-30T05:55:12.851Z,108.60
2023-04-30T05:56:12.814Z,68.30
2023-04-30T05:57:12.798Z,55.40
2023-04-30T05:58:12.802Z,208.50
2023-04-30T05:59:12.819Z,303.30
2023-04-30T06:00:12.797Z,58.00
2023-04-30T06:01:12.793Z,49.10
2023-04-30T06:02:12.790Z,137.50
2023-04-30T06:03:12.791Z,293.00
2023-04-30T06:04:12.766Z,230.10
2023-04-30T06:05:15.329Z,58.10
2023-04-30T06:06:12.831Z,104.90
2023-04-30T06:07:12.719Z,234.40
2023-04-30T06:08:12.686Z,56.80
2023-04-30T06:09:12.730Z,61.60
2023-04-30T06:10:12.807Z,284.00
2023-04-30T06:11:12.678Z,281.80
2023-04-30T06:12:12.655Z,149.50
2023-04-30T06:13:12.661Z,39.30
2023-04-30T06:14:12.673Z,297.30
2023-04-30T06:15:12.628Z,282.90
2023-04-30T06:16:12.630Z,233.90
2023-04-30T06:17:12.606Z,226.90
2023-04-30T06:18:12.613Z,394.00
2023-04-30T06:19:12.596Z,144.70
2023-04-30T06:20:12.539Z,44.10
2023-04-30T06:21:12.530Z,20.80
2023-04-30T06:22:12.573Z,131.90
2023-04-30T06:23:12.524Z,28.80
2023-04-30T06:24:12.570Z,160.00
2023-04-30T06:25:12.489Z,256.70
2023-04-30T06:26:12.497Z,195.30
2023-04-30T06:27:12.482Z,313.80
2023-04-30T06:28:12.479Z,273.70
2023-04-30T06:29:12.459Z,275.60
2023-04-30T06:30:12.472Z,343.40
2023-04-30T06:31:12.452Z,332.50
2023-04-30T06:32:12.454Z,71.60
2023-04-30T06:33:12.416Z,28.00
2023-04-30T06:34:12.376Z,40.10
2023-04-30T06:35:12.436Z,20.10
2023-04-30T06:36:12.357Z,19.90
2023-04-30T06:37:12.368Z,19.40
2023-04-30T06:38:12.350Z,23.30
2023-04-30T06:39:12.360Z,16.10
2023-04-30T06:40:12.376Z,17.60
2023-04-30T06:41:12.308Z,15.90
2023-04-30T06:42:12.300Z,19.50
2023-04-30T06:43:12.303Z,21.60
2023-04-30T06:44:12.290Z,17.10
2023-04-30T06:45:12.348Z,23.90
2023-04-30T06:46:12.288Z,18.20
2023-04-30T06:47:12.257Z,16.00
2023-04-30T06:48:12.239Z,19.40
2023-04-30T06:49:12.238Z,20.60
2023-04-30T06:50:12.264Z,35.10
2023-04-30T06:51:12.201Z,20.20
2023-04-30T06:52:12.267Z,23.20
2023-04-30T06:53:12.171Z,29.80
2023-04-30T06:54:12.166Z,31.90
2023-04-30T06:55:12.229Z,46.30
2023-04-30T06:56:12.155Z,40.20
2023-04-30T06:57:12.139Z,26.10
2023-04-30T06:58:12.133Z,25.40
2023-04-30T06:59:12.125Z,26.20
2023-04-30T07:00:12.148Z,20.70
2023-04-30T07:01:12.105Z,23.30
2023-04-30T07:02:12.168Z,22.50
2023-04-30T07:03:12.158Z,20.20
2023-04-30T07:04:12.064Z,26.70
2023-04-30T07:05:12.100Z,19.40
2023-04-30T07:06:12.087Z,20.80
2023-04-30T07:07:12.036Z,23.90
2023-04-30T07:08:12.065Z,23.70
2023-04-30T07:09:12.034Z,21.10
2023-04-30T07:10:12.014Z,19.40
2023-04-30T07:11:11.972Z,22.10
2023-04-30T07:12:11.999Z,18.70
2023-04-30T07:13:11.946Z,19.90
2023-04-30T07:14:11.944Z,21.50
2023-04-30T07:15:11.986Z,19.60
2023-04-30T07:16:12.008Z,38.70
2023-04-30T07:17:11.912Z,29.40
2023-04-30T07:18:11.912Z,18.70
2023-04-30T07:19:11.898Z,48.70
2023-04-30T07:20:11.895Z,32.30
2023-04-30T07:21:11.882Z,71.40
2023-04-30T07:22:11.860Z,55.50
2023-04-30T07:23:11.872Z,68.20
2023-04-30T07:24:11.842Z,35.00
2023-04-30T07:25:11.816Z,32.90
2023-04-30T07:26:11.836Z,105.20
2023-04-30T07:27:11.836Z,74.70
2023-04-30T07:28:11.785Z,34.80
2023-04-30T07:29:11.791Z,25.50
2023-04-30T07:30:11.784Z,27.30
2023-04-30T07:31:11.815Z,32.60
2023-04-30T07:32:11.752Z,61.30
2023-04-30T07:33:11.740Z,43.90
2023-04-30T07:34:11.705Z,37.60
2023-04-30T07:35:11.708Z,37.20
2023-04-30T07:36:11.737Z,139.10
2023-04-30T07:37:11.711Z,34.10
2023-04-30T07:38:11.666Z,29.20
2023-04-30T07:39:11.767Z,23.10
2023-04-30T07:40:13.267Z,83.50
2023-04-30T07:41:11.663Z,69.70
2023-04-30T07:42:11.645Z,31.50
2023-04-30T07:43:11.604Z,56.60
2023-04-30T07:44:11.614Z,32.20
2023-04-30T07:45:11.566Z,110.80
2023-04-30T07:46:11.639Z,48.20
2023-04-30T07:47:11.575Z,39.30
2023-04-30T07:48:11.552Z,49.80
2023-04-30T07:49:11.536Z,28.40
2023-04-30T07:50:11.548Z,33.50
2023-04-30T07:51:11.540Z,30.60
2023-04-30T07:52:11.519Z,28.10
2023-04-30T07:53:11.492Z,21.70
2023-04-30T07:54:11.509Z,43.20
2023-04-30T07:55:11.501Z,24.50
2023-04-30T07:56:11.504Z,35.30
2023-04-30T07:57:11.450Z,22.60
2023-04-30T07:58:11.480Z,23.00
2023-04-30T07:59:11.426Z,75.90
2023-04-30T08:00:11.444Z,30.20
2023-04-30T08:01:11.458Z,67.30
2023-04-30T08:02:11.429Z,53.70
2023-04-30T08:03:11.474Z,43.50
2023-04-30T08:04:11.400Z,245.20
2023-04-30T08:05:11.373Z,163.50
2023-04-30T08:06:11.424Z,285.90
2023-04-30T08:07:11.356Z,93.70
2023-04-30T08:08:11.346Z,290.80
2023-04-30T08:09:11.335Z,447.20
2023-04-30T08:10:11.337Z,98.30
2023-04-30T08:11:11.344Z,159.30
2023-04-30T08:12:11.299Z,83.30
2023-04-30T08:13:11.304Z,109.90
2023-04-30T08:14:11.276Z,175.90
2023-04-30T08:15:11.252Z,110.20
2023-04-30T08:16:11.358Z,95.70
2023-04-30T08:17:11.205Z,88.20
2023-04-30T08:18:11.241Z,146.70
2023-04-30T08:19:11.229Z,148.90
2023-04-30T08:20:11.204Z,70.20
2023-04-30T08:21:11.207Z,29.60
2023-04-30T08:22:11.169Z,19.70
2023-04-30T08:23:11.168Z,29.80
2023-04-30T08:24:11.171Z,153.50
2023-04-30T08:25:11.157Z,179.10
2023-04-30T08:26:11.156Z,120.70
2023-04-30T08:27:11.118Z,99.10
2023-04-30T08:28:11.163Z,449.00
2023-04-30T08:29:11.094Z,45.80
2023-04-30T08:30:11.091Z,138.30
2023-04-30T08:31:11.144Z,32.10
2023-04-30T08:32:11.127Z,141.00
2023-04-30T08:33:11.112Z,115.10
2023-04-30T08:34:11.067Z,113.20
2023-04-30T08:35:11.037Z,139.40
2023-04-30T08:36:11.065Z,94.40
2023-04-30T08:37:11.006Z,51.70
2023-04-30T08:38:11.006Z,40.20
2023-04-30T08:39:10.997Z,61.10
2023-04-30T08:40:11.004Z,80.00
2023-04-30T08:41:11.025Z,85.60
2023-04-30T08:42:10.967Z,87.50
2023-04-30T08:43:10.946Z,73.30
2023-04-30T08:44:10.920Z,33.80
2023-04-30T08:45:10.900Z,85.70
2023-04-30T08:46:10.963Z,60.80
2023-04-30T08:47:10.898Z,35.80
2023-04-30T08:48:10.874Z,47.70
2023-04-30T08:49:10.874Z,128.40
2023-04-30T08:50:10.871Z,73.70
2023-04-30T08:51:10.894Z,36.60
2023-04-30T08:52:10.848Z,99.00
2023-04-30T08:53:10.808Z,198.20
2023-04-30T08:54:10.805Z,77.90
2023-04-30T08:55:10.806Z,143.40
2023-04-30T08:56:10.823Z,64.30
2023-04-30T08:57:10.766Z,55.50
2023-04-30T08:58:10.764Z,124.00
2023-04-30T08:59:10.754Z,94.50
2023-04-30T09:00:10.749Z,312.10
2023-04-30T09:01:10.835Z,361.50
2023-04-30T09:02:10.879Z,286.80
2023-04-30T09:03:10.784Z,141.70
2023-04-30T09:04:10.824Z,143.30
2023-04-30T09:05:10.689Z,113.90
2023-04-30T09:06:10.690Z,112.20
2023-04-30T09:07:10.694Z,87.20
2023-04-30T09:08:10.696Z,139.60
2023-04-30T09:09:10.624Z,121.90
2023-04-30T09:10:10.641Z,131.90
2023-04-30T09:11:10.632Z,87.00
2023-04-30T09:12:10.642Z,151.30
2023-04-30T09:13:10.585Z,145.90
2023-04-30T09:14:10.594Z,188.10
2023-04-30T09:15:10.560Z,253.60
2023-04-30T09:16:10.564Z,209.80
2023-04-30T09:17:10.585Z,76.70
2023-04-30T09:18:10.568Z,167.60
2023-04-30T09:19:10.514Z,105.50
2023-04-30T09:20:10.528Z,113.60
2023-04-30T09:21:10.499Z,78.30
2023-04-30T09:22:10.545Z,83.80
2023-04-30T09:23:10.485Z,127.60
2023-04-30T09:24:10.539Z,111.00
2023-04-30T09:25:10.473Z,188.00
2023-04-30T09:26:10.480Z,118.30
2023-04-30T09:27:10.479Z,63.80
2023-04-30T09:28:10.514Z,45.70
2023-04-30T09:29:10.442Z,95.10
2023-04-30T09:30:10.400Z,140.20
2023-04-30T09:31:10.388Z,178.70
2023-04-30T09:32:10.456Z,166.50
2023-04-30T09:33:12.215Z,203.20
2023-04-30T09:34:10.385Z,153.10
2023-04-30T09:35:10.363Z,98.70
2023-04-30T09:36:10.368Z,58.30
2023-04-30T09:37:10.363Z,158.50
2023-04-30T09:38:10.315Z,102.40
2023-04-30T09:39:12.055Z,104.70
2023-04-30T09:40:10.286Z,175.90
2023-04-30T09:41:10.276Z,220.70
2023-04-30T09:42:10.361Z,170.00
2023-04-30T09:43:10.236Z,248.50
2023-04-30T09:44:10.260Z,162.50
2023-04-30T09:45:10.224Z,218.80
2023-04-30T09:46:10.284Z,254.50
2023-04-30T09:47:10.273Z,256.80
2023-04-30T09:48:17.105Z,222.10
2023-04-30T09:49:11.202Z,205.20
2023-04-30T09:50:10.188Z,215.90
2023-04-30T09:51:10.164Z,219.40
2023-04-30T09:52:10.191Z,206.70
2023-04-30T09:53:10.162Z,173.30
2023-04-30T09:54:10.150Z,287.90
2023-04-30T09:55:10.147Z,181.60
2023-04-30T09:56:10.108Z,185.90
2023-04-30T09:57:10.122Z,170.90
2023-04-30T09:58:10.108Z,183.90
2023-04-30T09:59:10.080Z,254.50
2023-04-30T10:00:10.050Z,321.00
2023-04-30T10:01:10.111Z,80.20
2023-04-30T10:02:10.072Z,93.70
2023-04-30T10:03:10.064Z,96.60
2023-04-30T10:04:10.058Z,115.80
2023-04-30T10:05:09.989Z,113.10
2023-04-30T10:06:10.035Z,120.80
2023-04-30T10:07:10.032Z,140.00
2023-04-30T10:08:09.981Z,229.60
2023-04-30T10:09:09.966Z,210.30
2023-04-30T10:10:10.031Z,125.60
2023-04-30T10:11:09.938Z,72.50
2023-04-30T10:12:09.972Z,57.90
2023-04-30T10:13:09.964Z,98.70
2023-04-30T10:14:09.920Z,78.60
2023-04-30T10:15:09.895Z,132.70
2023-04-30T10:16:09.902Z,80.60
2023-04-30T10:17:09.921Z,132.90
2023-04-30T10:18:09.900Z,124.80
2023-04-30T10:19:09.871Z,101.50
2023-04-30T10:20:09.851Z,142.40
2023-04-30T10:21:09.848Z,74.30
2023-04-30T10:22:09.871Z,77.40
2023-04-30T10:23:09.812Z,124.10
2023-04-30T10:24:09.823Z,158.60
2023-04-30T10:25:09.794Z,140.60
2023-04-30T10:26:09.792Z,241.40
2023-04-30T10:27:09.843Z,171.20
2023-04-30T10:28:09.789Z,263.50
2023-04-30T10:29:09.741Z,175.30
2023-04-30T10:30:09.755Z,179.10
2023-04-30T10:31:09.738Z,143.80
2023-04-30T10:32:09.831Z,146.30
2023-04-30T10:33:09.803Z,152.80
2023-04-30T10:34:09.692Z,146.80
2023-04-30T10:35:09.700Z,188.00
2023-04-30T10:36:09.672Z,120.90
2023-04-30T10:37:09.658Z,93.40
2023-04-30T10:38:09.682Z,116.50
2023-04-30T10:39:09.622Z,115.40
2023-04-30T10:40:09.637Z,98.70
2023-04-30T10:41:09.684Z,97.40
2023-04-30T10:42:09.603Z,96.80
2023-04-30T10:43:09.635Z,89.40
2023-04-30T10:44:09.597Z,78.20
2023-04-30T10:45:09.572Z,76.90
2023-04-30T10:46:09.583Z,108.00
2023-04-30T10:47:09.538Z,70.00
2023-04-30T10:48:09.605Z,84.60
2023-04-30T10:49:09.526Z,81.40
2023-04-30T10:50:09.515Z,80.90
2023-04-30T10:51:09.512Z,157.40
2023-04-30T10:52:09.515Z,86.00
2023-04-30T10:53:09.536Z,103.80
2023-04-30T10:54:09.465Z,60.50
2023-04-30T10:55:09.474Z,80.80
2023-04-30T10:56:09.862Z,70.90
2023-04-30T10:57:09.453Z,71.30
2023-04-30T10:58:09.473Z,63.40
2023-04-30T10:59:09.468Z,60.40
2023-04-30T11:00:09.419Z,58.40
2023-04-30T11:01:09.441Z,58.30
2023-04-30T11:02:09.396Z,56.80
2023-04-30T11:03:09.466Z,72.80
2023-04-30T11:04:09.385Z,49.60
2023-04-30T11:05:09.384Z,52.60
2023-04-30T11:06:09.410Z,60.30
2023-04-30T11:07:09.314Z,119.90
2023-04-30T11:08:09.358Z,74.80
2023-04-30T11:09:09.330Z,155.90
2023-04-30T11:10:09.317Z,197.70
2023-04-30T11:11:09.306Z,212.20
2023-04-30T11:12:09.275Z,113.30
2023-04-30T11:13:09.305Z,113.30
2023-04-30T11:14:09.235Z,97.80
2023-04-30T11:15:09.268Z,98.90
2023-04-30T11:16:09.344Z,73.70
2023-04-30T11:17:09.228Z,126.60
2023-04-30T11:18:09.351Z,123.60
2023-04-30T11:19:11.294Z,89.00
2023-04-30T11:20:09.196Z,93.90
2023-04-30T11:21:09.166Z,99.60
2023-04-30T11:22:09.182Z,143.90
2023-04-30T11:23:09.209Z,100.70
2023-04-30T11:24:09.160Z,115.30
2023-04-30T11:25:09.130Z,89.20
2023-04-30T11:26:09.151Z,78.50
2023-04-30T11:27:09.109Z,76.50
2023-04-30T11:28:09.164Z,73.90
2023-04-30T11:29:09.163Z,95.60
2023-04-30T11:30:09.110Z,134.00
2023-04-30T11:31:09.194Z,130.00
2023-04-30T11:32:09.081Z,112.10
2023-04-30T11:33:09.295Z,105.10
2023-04-30T11:34:09.054Z,92.20
2023-04-30T11:35:09.032Z,77.90
2023-04-30T11:36:09.003Z,93.60
2023-04-30T11:37:09.011Z,106.90
2023-04-30T11:38:09.166Z,163.50
2023-04-30T11:39:09.003Z,171.60
2023-04-30T11:40:09.002Z,93.00
2023-04-30T11:41:08.954Z,190.40
2023-04-30T11:42:08.965Z,181.70
2023-04-30T11:43:09.005Z,113.30
2023-04-30T11:44:08.947Z,186.70
2023-04-30T11:45:08.959Z,81.80
2023-04-30T11:46:08.986Z,58.40
2023-04-30T11:47:09.027Z,44.10
2023-04-30T11:48:08.989Z,46.50
2023-04-30T11:49:08.940Z,46.00
2023-04-30T11:50:08.944Z,175.70
2023-04-30T11:51:08.870Z,134.90
2023-04-30T11:52:08.863Z,150.20
2023-04-30T11:53:08.864Z,138.10
2023-04-30T11:54:08.820Z,118.60
2023-04-30T11:55:08.843Z,139.20
2023-04-30T11:56:08.814Z,106.80
2023-04-30T11:57:08.821Z,80.20
2023-04-30T11:58:08.829Z,130.10
2023-04-30T11:59:08.794Z,163.90
2023-04-30T12:00:08.919Z,148.70
2023-04-30T12:01:08.775Z,126.10
2023-04-30T12:02:09.651Z,139.00
2023-04-30T12:03:08.889Z,147.00
2023-04-30T12:04:08.810Z,196.20
2023-04-30T12:05:08.708Z,127.10
2023-04-30T12:06:08.716Z,131.50
2023-04-30T12:07:08.686Z,155.00
2023-04-30T12:08:08.725Z,129.70
2023-04-30T12:09:08.771Z,140.50
2023-04-30T12:10:08.671Z,160.20
2023-04-30T12:11:08.652Z,202.60
2023-04-30T12:12:08.648Z,162.10
2023-04-30T12:13:08.676Z,101.80
2023-04-30T12:14:08.603Z,67.50
2023-04-30T12:15:08.625Z,107.10
2023-04-30T12:16:08.636Z,117.10
2023-04-30T12:17:08.590Z,120.00
2023-04-30T12:18:08.650Z,81.00
2023-04-30T12:19:08.576Z,50.50
2023-04-30T12:20:08.619Z,63.80
2023-04-30T12:21:08.528Z,81.10
2023-04-30T12:22:08.528Z,78.80
2023-04-30T12:23:08.559Z,70.70
2023-04-30T12:24:08.514Z,105.40
2023-04-30T12:25:08.545Z,76.60
2023-04-30T12:26:08.496Z,50.90
2023-04-30T12:27:08.470Z,33.60
2023-04-30T12:28:08.502Z,46.20
2023-04-30T12:29:08.457Z,55.20
2023-04-30T12:30:08.480Z,41.30
2023-04-30T12:31:08.421Z,85.20
2023-04-30T12:32:08.474Z,72.50
2023-04-30T12:33:08.466Z,56.70
2023-04-30T12:34:08.391Z,48.70
2023-04-30T12:35:08.398Z,39.60